createdAt,value
2022-12-31T00:00:19.338Z,52.70
2022-12-31T00:02:46.478Z,49.60
2022-12-31T00:05:14.803Z,53.90
2022-12-31T00:10:08.133Z,44.40
2022-12-31T00:12:35.540Z,43.90
2022-12-31T00:15:03.615Z,42.40
2022-12-31T00:17:31.472Z,45.60
2022-12-31T00:19:58.459Z,49.90
2022-12-31T00:22:25.395Z,51.30
2022-12-31T00:24:52.390Z,58.80
2022-12-31T00:27:19.308Z,35.70
2022-12-31T00:29:46.491Z,29.10
2022-12-31T00:32:13.833Z,41.70
2022-12-31T00:34:40.776Z,40.00
2022-12-31T00:37:08.243Z,38.80
2022-12-31T00:39:35.095Z,33.30
2022-12-31T00:42:04.647Z,34.70
2022-12-31T00:44:31.608Z,27.60
2022-12-31T00:46:58.518Z,21.90
2022-12-31T00:49:25.454Z,25.10
2022-12-31T00:51:52.577Z,28.10
2022-12-31T00:54:20.621Z,25.50
2022-12-31T00:56:51.634Z,27.80
2022-12-31T00:59:18.535Z,29.50
2022-12-31T01:01:45.589Z,25.80
2022-12-31T01:04:14.724Z,44.80
2022-12-31T01:06:42.606Z,36.50
2022-12-31T01:09:10.327Z,48.70
2022-12-31T01:11:37.639Z,35.80
2022-12-31T01:14:11.328Z,30.40
2022-12-31T01:16:57.115Z,29.30
2022-12-31T01:19:25.914Z,40.60
2022-12-31T01:21:52.967Z,32.00
2022-12-31T01:24:20.563Z,34.30
2022-12-31T01:26:49.368Z,25.80
2022-12-31T01:29:17.077Z,29.60
2022-12-31T01:31:44.095Z,32.80
2022-12-31T01:34:11.238Z,29.20
2022-12-31T01:36:38.753Z,23.80
2022-12-31T01:39:06.453Z,25.20
2022-12-31T01:41:38.672Z,28.80
2022-12-31T01:44:11.955Z,39.70
2022-12-31T01:46:46.823Z,32.00
2022-12-31T01:49:33.196Z,28.70
2022-12-31T01:52:03.321Z,23.90
2022-12-31T01:54:31.575Z,20.00
2022-12-31T01:56:58.458Z,16.50
2022-12-31T01:59:26.060Z,19.90
2022-12-31T02:01:53.046Z,18.80
2022-12-31T02:04:21.084Z,20.30
2022-12-31T02:07:07.002Z,20.90
2022-12-31T02:09:34.522Z,19.30
2022-12-31T02:12:01.448Z,17.10
2022-12-31T02:14:31.172Z,15.50
2022-12-31T02:17:06.591Z,16.90
2022-12-31T02:19:39.300Z,19.40
2022-12-31T02:22:31.768Z,24.20
2022-12-31T02:25:14.709Z,22.50
2022-12-31T02:27:53.019Z,21.10
2022-12-31T02:30:21.824Z,18.90
2022-12-31T02:33:02.933Z,19.00
2022-12-31T02:35:48.529Z,22.00
2022-12-31T02:38:21.115Z,21.10
2022-12-31T02:40:48.793Z,19.60
2022-12-31T02:43:15.603Z,18.70
2022-12-31T02:45:45.699Z,19.60
2022-12-31T02:48:21.801Z,17.30
2022-12-31T02:50:55.700Z,17.20
2022-12-31T02:53:49.646Z,18.50
2022-12-31T02:56:21.522Z,19.10
2022-12-31T02:59:16.283Z,18.90
2022-12-31T03:02:03.863Z,18.50
2022-12-31T03:04:34.252Z,18.10
2022-12-31T03:07:06.261Z,14.90
2022-12-31T03:09:33.957Z,12.30
2022-12-31T03:12:19.695Z,14.90
2022-12-31T03:14:48.905Z,16.30
2022-12-31T03:17:15.853Z,15.60
2022-12-31T03:20:01.542Z,16.40
2022-12-31T03:22:28.984Z,16.90
2022-12-31T03:25:18.801Z,14.20
2022-12-31T03:27:46.827Z,13.80
2022-12-31T03:30:15.517Z,14.80
2022-12-31T03:32:42.731Z,14.30
2022-12-31T03:35:10.298Z,15.30
2022-12-31T03:37:37.231Z,14.40
2022-12-31T03:40:05.021Z,16.00
2022-12-31T03:42:32.134Z,13.10
2022-12-31T03:44:59.079Z,15.40
2022-12-31T03:47:26.003Z,15.80
2022-12-31T03:49:53.023Z,17.80
2022-12-31T03:52:20.547Z,16.00
2022-12-31T03:54:47.416Z,15.90
2022-12-31T03:57:14.396Z,16.70
2022-12-31T03:59:41.706Z,14.40
2022-12-31T04:02:08.960Z,16.40
2022-12-31T04:04:36.009Z,18.00
2022-12-31T04:07:03.166Z,16.80
2022-12-31T04:09:30.000Z,15.90
2022-12-31T04:11:57.004Z,17.00
2022-12-31T04:14:24.073Z,18.70
2022-12-31T04:16:51.215Z,14.10
2022-12-31T04:19:18.191Z,13.70
2022-12-31T04:21:45.266Z,13.50
2022-12-31T04:24:12.821Z,14.00
2022-12-31T04:26:40.036Z,14.70
2022-12-31T04:29:07.007Z,14.70
2022-12-31T04:31:34.064Z,14.80
2022-12-31T04:34:00.986Z,12.50
2022-12-31T04:36:27.835Z,11.80
2022-12-31T04:38:54.655Z,13.10
2022-12-31T04:41:27.001Z,13.20
2022-12-31T04:43:56.627Z,13.70
2022-12-31T04:46:25.151Z,14.80
2022-12-31T04:48:53.548Z,15.50
2022-12-31T04:51:20.679Z,13.00
2022-12-31T04:53:47.588Z,14.60
2022-12-31T04:56:15.006Z,14.60
2022-12-31T04:58:41.925Z,15.30
2022-12-31T05:01:09.356Z,16.00
2022-12-31T05:03:36.919Z,15.80
2022-12-31T05:06:06.356Z,15.50
2022-12-31T05:08:33.332Z,14.80
2022-12-31T05:11:00.577Z,14.00
2022-12-31T05:13:32.979Z,14.50
2022-12-31T05:16:01.093Z,14.00
2022-12-31T05:18:28.260Z,15.20
2022-12-31T05:20:55.291Z,14.60
2022-12-31T05:23:23.865Z,15.10
2022-12-31T05:25:51.447Z,11.30
2022-12-31T05:28:18.509Z,12.70
2022-12-31T05:30:47.602Z,12.00
2022-12-31T05:33:14.790Z,13.20
2022-12-31T05:35:41.670Z,13.60
2022-12-31T05:38:08.554Z,15.70
2022-12-31T05:40:36.703Z,18.60
2022-12-31T05:43:03.642Z,14.70
2022-12-31T05:45:31.328Z,14.40
2022-12-31T05:47:58.448Z,15.80
2022-12-31T05:50:26.356Z,15.10
2022-12-31T05:52:55.738Z,16.60
2022-12-31T05:55:22.787Z,29.80
2022-12-31T05:57:49.639Z,22.40
2022-12-31T06:00:19.880Z,15.10
2022-12-31T06:02:47.188Z,22.50
2022-12-31T06:05:14.268Z,18.70
2022-12-31T06:07:42.678Z,18.40
2022-12-31T06:10:10.100Z,22.20
2022-12-31T06:12:37.447Z,23.30
2022-12-31T06:15:04.966Z,20.30
2022-12-31T06:17:33.019Z,17.10
2022-12-31T06:20:00.030Z,19.20
2022-12-31T06:22:27.015Z,25.80
2022-12-31T06:24:54.052Z,31.00
2022-12-31T06:27:21.542Z,29.90
2022-12-31T06:29:48.522Z,32.00
2022-12-31T06:32:15.922Z,34.20
2022-12-31T06:34:42.969Z,26.20
2022-12-31T06:37:10.091Z,26.50
2022-12-31T06:39:38.223Z,22.30
2022-12-31T06:42:05.495Z,22.00
2022-12-31T06:44:32.417Z,23.40
2022-12-31T06:46:59.234Z,23.50
2022-12-31T06:49:26.207Z,22.90
2022-12-31T06:51:53.025Z,20.00
2022-12-31T06:54:20.030Z,20.70
2022-12-31T06:56:47.322Z,21.80
2022-12-31T06:59:25.655Z,27.40
2022-12-31T07:02:02.469Z,30.10
2022-12-31T07:05:02.767Z,28.00
2022-12-31T07:07:32.957Z,29.70
2022-12-31T07:10:30.094Z,26.80
2022-12-31T07:13:19.417Z,26.50
2022-12-31T07:16:04.504Z,27.80
2022-12-31T07:18:34.596Z,29.90
2022-12-31T07:21:04.136Z,29.20
2022-12-31T07:23:31.510Z,31.20
2022-12-31T07:26:09.269Z,24.90
2022-12-31T07:29:12.044Z,26.40
2022-12-31T07:31:51.177Z,28.90
2022-12-31T07:34:33.461Z,35.40
2022-12-31T07:37:08.687Z,42.10
2022-12-31T07:39:41.805Z,38.50
2022-12-31T07:42:15.738Z,28.60
2022-12-31T07:44:55.058Z,27.10
2022-12-31T07:47:26.584Z,30.40
2022-12-31T07:49:54.162Z,30.20
2022-12-31T07:52:21.634Z,35.60
2022-12-31T07:54:48.543Z,32.50
2022-12-31T07:57:16.527Z,33.80
2022-12-31T07:59:52.617Z,31.30
2022-12-31T08:02:57.385Z,28.80
2022-12-31T08:05:44.528Z,23.40
2022-12-31T08:08:39.566Z,27.50
2022-12-31T08:11:38.512Z,30.20
2022-12-31T08:14:09.051Z,32.40
2022-12-31T08:16:36.424Z,29.50
2022-12-31T08:19:03.757Z,28.00
2022-12-31T08:22:09.371Z,26.60
2022-12-31T08:24:44.379Z,31.80
2022-12-31T08:27:36.248Z,36.20
2022-12-31T08:30:10.240Z,39.70
2022-12-31T08:32:44.961Z,43.50
2022-12-31T08:35:21.464Z,34.20
2022-12-31T08:37:55.790Z,33.00
2022-12-31T08:40:26.453Z,33.70
2022-12-31T08:43:12.001Z,29.80
2022-12-31T08:45:47.754Z,32.00
2022-12-31T08:48:14.694Z,33.00
2022-12-31T08:50:41.919Z,32.80
2022-12-31T08:53:09.015Z,26.40
2022-12-31T08:55:36.479Z,26.50
2022-12-31T08:58:22.804Z,25.50
2022-12-31T09:00:50.359Z,25.80
2022-12-31T09:03:45.351Z,26.10
2022-12-31T09:06:30.040Z,24.90
2022-12-31T09:09:25.330Z,24.80
2022-12-31T09:12:11.446Z,21.60
2022-12-31T09:15:16.151Z,26.30
2022-12-31T09:17:44.668Z,27.30
2022-12-31T09:20:42.469Z,28.40
2022-12-31T09:23:10.613Z,23.10
2022-12-31T09:25:42.944Z,26.50
2022-12-31T09:28:13.236Z,28.50
2022-12-31T09:31:22.537Z,26.90
2022-12-31T09:33:52.923Z,20.60
2022-12-31T09:36:57.002Z,22.00
2022-12-31T09:39:38.189Z,21.10
2022-12-31T09:42:32.469Z,19.20
2022-12-31T09:45:22.811Z,24.30
2022-12-31T09:48:28.521Z,27.20
2022-12-31T09:51:25.683Z,24.30
2022-12-31T09:54:20.394Z,24.40
2022-12-31T09:56:59.168Z,19.40
2022-12-31T09:59:54.486Z,24.90
2022-12-31T10:02:36.190Z,26.00
2022-12-31T10:05:12.749Z,24.80
2022-12-31T10:07:56.905Z,26.90
2022-12-31T10:10:26.521Z,27.00
2022-12-31T10:13:09.352Z,28.60
2022-12-31T10:16:10.174Z,24.10
2022-12-31T10:18:46.308Z,18.60
2022-12-31T10:22:00.065Z,20.00
2022-12-31T10:24:42.325Z,23.60
2022-12-31T10:27:28.815Z,21.60
2022-12-31T10:29:59.094Z,24.70
2022-12-31T10:32:31.168Z,28.20
2022-12-31T10:35:27.866Z,28.40
2022-12-31T10:38:00.789Z,29.20
2022-12-31T10:40:52.146Z,29.10
2022-12-31T10:43:44.232Z,25.60
2022-12-31T10:46:34.126Z,23.50
2022-12-31T10:49:52.148Z,24.20
2022-12-31T10:52:50.203Z,27.20
2022-12-31T10:56:07.045Z,23.90
2022-12-31T10:58:51.499Z,24.60
2022-12-31T11:01:28.424Z,21.40
2022-12-31T11:04:16.969Z,23.30
2022-12-31T11:07:02.719Z,26.90
2022-12-31T11:10:01.831Z,19.50
2022-12-31T11:12:31.790Z,19.30
2022-12-31T11:15:14.081Z,26.60
2022-12-31T11:17:54.386Z,26.30
2022-12-31T11:20:46.587Z,26.80
2022-12-31T11:23:32.192Z,21.10
2022-12-31T11:26:37.277Z,22.00
2022-12-31T11:29:22.753Z,23.20
2022-12-31T11:31:52.681Z,20.80
2022-12-31T11:34:42.445Z,28.20
2022-12-31T11:37:28.467Z,32.00
2022-12-31T11:40:25.505Z,26.70
2022-12-31T11:43:01.225Z,13.60
2022-12-31T11:45:42.263Z,24.80
2022-12-31T11:48:31.438Z,19.00
2022-12-31T11:51:24.479Z,17.50
2022-12-31T11:54:07.692Z,14.50
2022-12-31T11:56:40.749Z,16.10
2022-12-31T11:59:14.359Z,10.20
2022-12-31T12:02:00.222Z,9.20
2022-12-31T12:04:27.650Z,9.80
2022-12-31T12:06:54.574Z,7.60
2022-12-31T12:09:30.531Z,9.00
2022-12-31T12:11:59.049Z,8.70
2022-12-31T12:14:38.969Z,8.00
2022-12-31T12:17:32.169Z,8.50
2022-12-31T12:20:04.351Z,8.20
2022-12-31T12:22:31.819Z,7.80
2022-12-31T12:25:03.885Z,8.50
2022-12-31T12:27:33.179Z,9.50
2022-12-31T12:30:19.375Z,9.70
2022-12-31T12:33:02.162Z,9.20
2022-12-31T12:35:31.405Z,8.00
2022-12-31T12:38:06.490Z,9.20
2022-12-31T12:40:34.629Z,10.90
2022-12-31T12:43:02.078Z,9.30
2022-12-31T12:45:51.437Z,10.60
2022-12-31T12:48:34.828Z,9.50
2022-12-31T12:51:02.235Z,9.40
2022-12-31T12:53:37.629Z,9.80
2022-12-31T12:56:36.088Z,12.50
2022-12-31T12:59:39.757Z,9.80
2022-12-31T13:02:12.654Z,10.20
2022-12-31T13:04:46.489Z,11.30
2022-12-31T13:07:32.409Z,11.70
2022-12-31T13:10:02.612Z,9.80
2022-12-31T13:13:13.362Z,10.50
2022-12-31T13:15:26.867Z,10.80
2022-12-31T13:18:31.240Z,13.80
2022-12-31T13:21:20.287Z,11.80
2022-12-31T13:23:57.483Z,11.70
2022-12-31T13:26:25.670Z,11.40
2022-12-31T13:28:52.639Z,11.10
2022-12-31T13:31:23.640Z,12.70
2022-12-31T13:33:52.926Z,11.80
2022-12-31T13:36:21.381Z,11.60
2022-12-31T13:38:52.554Z,21.90
2022-12-31T13:41:29.425Z,13.40
2022-12-31T13:44:11.326Z,12.20
2022-12-31T13:47:04.723Z,11.40
2022-12-31T13:50:14.432Z,9.70
2022-12-31T13:52:48.606Z,14.90
2022-12-31T13:55:19.239Z,13.90
2022-12-31T13:57:47.387Z,15.70
2022-12-31T14:00:30.271Z,13.40
2022-12-31T14:03:09.098Z,13.20
2022-12-31T14:05:57.885Z,12.50
2022-12-31T14:08:24.832Z,14.60
2022-12-31T14:10:58.037Z,15.20
2022-12-31T14:13:34.779Z,13.00
2022-12-31T14:16:16.111Z,15.00
2022-12-31T14:19:04.913Z,14.50
2022-12-31T14:21:56.702Z,15.10
2022-12-31T14:24:42.915Z,16.10
2022-12-31T14:27:16.136Z,11.10
2022-12-31T14:29:46.050Z,11.30
2022-12-31T14:32:32.339Z,12.20
2022-12-31T14:35:02.336Z,10.60
2022-12-31T14:37:55.365Z,11.60
2022-12-31T14:40:39.673Z,9.50
2022-12-31T14:43:30.787Z,9.60
2022-12-31T14:48:39.811Z,9.80
2022-12-31T14:51:06.915Z,10.60
2022-12-31T14:53:34.072Z,15.20
2022-12-31T14:56:25.380Z,11.10
2022-12-31T14:58:57.211Z,12.60
2022-12-31T15:01:26.296Z,10.60
2022-12-31T15:03:55.744Z,13.20
2022-12-31T15:06:34.881Z,17.10
2022-12-31T15:09:32.914Z,10.10
2022-12-31T15:12:07.065Z,7.80
2022-12-31T15:15:12.702Z,9.80
2022-12-31T15:17:48.075Z,9.30
2022-12-31T15:20:45.949Z,10.60
2022-12-31T15:23:34.523Z,10.80
2022-12-31T15:26:01.528Z,9.30
2022-12-31T15:28:34.186Z,11.30
2022-12-31T15:31:18.084Z,10.80
2022-12-31T15:34:02.266Z,9.50
2022-12-31T15:36:32.100Z,10.90
2022-12-31T15:39:05.319Z,11.40
2022-12-31T15:42:03.094Z,7.30
2022-12-31T15:44:57.936Z,7.50
2022-12-31T15:47:30.185Z,8.30
2022-12-31T15:50:02.843Z,8.50
2022-12-31T15:52:38.227Z,9.30
2022-12-31T15:55:05.771Z,8.30
2022-12-31T15:57:34.325Z,9.80
2022-12-31T16:00:02.256Z,10.00
2022-12-31T16:02:34.340Z,11.20
2022-12-31T16:05:01.265Z,8.10
2022-12-31T16:07:28.209Z,9.60
2022-12-31T16:09:56.701Z,6.80
2022-12-31T16:12:32.724Z,7.40
2022-12-31T16:15:00.678Z,7.80
2022-12-31T16:17:33.460Z,8.10
2022-12-31T16:20:01.557Z,8.30
2022-12-31T16:22:39.044Z,8.10
2022-12-31T16:27:54.794Z,9.00
2022-12-31T16:30:28.510Z,8.60
2022-12-31T16:33:00.664Z,9.20
2022-12-31T16:35:32.566Z,9.00
2022-12-31T16:38:16.403Z,7.60
2022-12-31T16:41:06.137Z,7.60
2022-12-31T16:43:38.101Z,8.00
2022-12-31T16:46:14.164Z,8.70
2022-12-31T16:48:46.112Z,9.80
2022-12-31T16:51:17.246Z,9.60
2022-12-31T16:56:11.037Z,11.10
2022-12-31T16:58:40.783Z,12.30
2022-12-31T17:01:18.397Z,11.10
2022-12-31T17:03:47.338Z,12.30
2022-12-31T17:06:18.570Z,7.90
2022-12-31T17:08:49.948Z,8.20
2022-12-31T17:11:45.635Z,9.80
2022-12-31T17:14:14.776Z,10.20
2022-12-31T17:17:02.831Z,11.30
2022-12-31T17:19:42.169Z,13.30
2022-12-31T17:22:13.893Z,12.60
2022-12-31T17:24:41.118Z,9.90
2022-12-31T17:27:08.933Z,9.50
2022-12-31T17:29:36.032Z,6.90
2022-12-31T17:34:14.658Z,7.40
2022-12-31T17:36:52.222Z,7.70
2022-12-31T17:39:21.480Z,7.30
2022-12-31T17:41:49.842Z,7.60
2022-12-31T17:44:21.148Z,6.90
2022-12-31T17:46:49.387Z,12.10
2022-12-31T17:49:16.794Z,7.70
2022-12-31T17:51:47.547Z,5.40
2022-12-31T17:54:15.620Z,6.70
2022-12-31T17:56:42.442Z,6.80
2022-12-31T17:59:13.414Z,6.90
2022-12-31T18:01:40.441Z,7.00
2022-12-31T18:04:12.619Z,8.60
2022-12-31T18:06:39.912Z,10.40
2022-12-31T18:09:07.348Z,8.50
2022-12-31T18:11:35.497Z,9.10
2022-12-31T18:14:02.685Z,8.10
2022-12-31T18:16:30.730Z,6.20
2022-12-31T18:18:58.479Z,13.70
2022-12-31T18:21:29.534Z,13.50
2022-12-31T18:26:23.142Z,11.50
2022-12-31T18:28:50.390Z,10.30
2022-12-31T18:31:25.253Z,8.50
2022-12-31T18:33:52.659Z,8.40
2022-12-31T18:36:23.430Z,7.50
2022-12-31T18:38:50.338Z,4.50
2022-12-31T18:41:26.926Z,4.50
2022-12-31T18:43:53.941Z,5.70
2022-12-31T18:46:23.462Z,5.20
2022-12-31T18:48:50.448Z,5.40
2022-12-31T18:51:25.126Z,5.60
2022-12-31T18:53:56.385Z,4.90
2022-12-31T18:56:25.270Z,5.60
2022-12-31T18:58:52.250Z,6.00
2022-12-31T19:01:35.459Z,3.70
2022-12-31T19:04:04.602Z,4.40
2022-12-31T19:06:31.635Z,5.30
2022-12-31T19:09:00.911Z,5.00
2022-12-31T19:11:33.063Z,5.00
2022-12-31T19:14:00.064Z,5.20
2022-12-31T19:16:26.973Z,4.60
2022-12-31T19:18:54.194Z,5.10
2022-12-31T19:21:22.771Z,5.00
2022-12-31T19:23:50.034Z,4.10
2022-12-31T19:26:18.839Z,4.00
2022-12-31T19:28:46.296Z,3.80
2022-12-31T19:31:13.301Z,3.90
2022-12-31T19:33:40.699Z,4.00
2022-12-31T19:36:16.318Z,6.00
2022-12-31T19:38:43.771Z,5.00
2022-12-31T19:41:18.194Z,5.00
2022-12-31T19:43:46.200Z,4.90
2022-12-31T19:46:14.650Z,4.60
2022-12-31T19:48:41.688Z,4.70
2022-12-31T19:51:10.234Z,48.20
2022-12-31T19:53:37.379Z,17.10
2022-12-31T19:56:04.886Z,6.60
2022-12-31T19:58:31.902Z,11.60
2022-12-31T20:01:02.809Z,7.00
2022-12-31T20:03:32.502Z,6.20
2022-12-31T20:06:11.488Z,6.20
2022-12-31T20:08:38.943Z,8.30
2022-12-31T20:11:20.171Z,5.90
2022-12-31T20:13:47.880Z,6.00
2022-12-31T20:16:17.266Z,10.60
2022-12-31T20:18:45.237Z,13.90
2022-12-31T20:21:20.147Z,5.50
2022-12-31T20:23:48.308Z,7.40
2022-12-31T20:26:15.675Z,20.80
2022-12-31T20:28:42.543Z,14.70
2022-12-31T20:31:11.093Z,20.00
2022-12-31T20:33:38.189Z,9.00
2022-12-31T20:36:06.126Z,7.30
2022-12-31T20:38:33.150Z,6.10
2022-12-31T20:41:08.067Z,4.10
2022-12-31T20:43:35.620Z,5.20
2022-12-31T20:46:22.525Z,6.30
2022-12-31T20:48:50.871Z,5.90
2022-12-31T20:51:18.407Z,5.00
2022-12-31T20:53:47.896Z,8.00
2022-12-31T20:56:17.229Z,5.40
2022-12-31T20:58:44.304Z,6.60
2022-12-31T21:01:11.294Z,6.60
2022-12-31T21:04:04.998Z,20.90
2022-12-31T21:06:26.280Z,10.20
2022-12-31T21:08:55.887Z,12.50
2022-12-31T21:11:41.599Z,11.90
2022-12-31T21:14:13.132Z,9.20
2022-12-31T21:16:40.282Z,7.80
2022-12-31T21:19:07.392Z,6.40
2022-12-31T21:21:34.493Z,8.60
2022-12-31T21:24:01.526Z,4.60
2022-12-31T21:26:29.270Z,8.30
2022-12-31T21:28:56.139Z,5.70
2022-12-31T21:31:23.025Z,6.00
2022-12-31T21:33:49.836Z,4.40
2022-12-31T21:36:16.974Z,5.70
2022-12-31T21:38:44.232Z,4.90
2022-12-31T21:41:33.607Z,5.50
2022-12-31T21:44:02.114Z,5.50
2022-12-31T21:46:29.378Z,4.80
2022-12-31T21:48:57.384Z,4.10
2022-12-31T21:51:24.474Z,3.40
2022-12-31T21:53:51.503Z,4.30
2022-12-31T21:56:21.197Z,4.30
2022-12-31T21:59:12.516Z,4.60
2022-12-31T22:05:00.225Z,5.30
2022-12-31T22:07:11.945Z,4.80
2022-12-31T22:09:38.787Z,7.00
2022-12-31T22:12:06.396Z,5.40
2022-12-31T22:14:33.535Z,4.30
2022-12-31T22:17:00.482Z,4.10
2022-12-31T22:19:27.296Z,4.50
2022-12-31T22:21:54.335Z,4.30
2022-12-31T22:24:21.351Z,4.30
2022-12-31T22:26:48.339Z,4.50
2022-12-31T22:29:15.207Z,4.80
2022-12-31T22:31:42.426Z,4.10
2022-12-31T22:34:09.367Z,4.40
2022-12-31T22:36:36.219Z,4.50
2022-12-31T22:39:03.671Z,3.60
2022-12-31T22:41:31.220Z,3.60
2022-12-31T22:44:03.756Z,3.70
2022-12-31T22:46:33.722Z,4.80
2022-12-31T22:49:03.279Z,5.10
2022-12-31T22:51:57.074Z,5.10
2022-12-31T22:54:18.214Z,4.70
2022-12-31T22:56:45.178Z,4.70
2022-12-31T22:59:11.965Z,4.90
2022-12-31T23:01:39.863Z,3.70
2022-12-31T23:04:06.978Z,4.20
2022-12-31T23:06:43.337Z,4.10
2022-12-31T23:09:33.235Z,5.40
2022-12-31T23:12:00.321Z,6.50
2022-12-31T23:14:46.179Z,7.60
2022-12-31T23:17:40.654Z,7.30
2022-12-31T23:20:29.730Z,7.20
2022-12-31T23:23:12.676Z,6.30
2022-12-31T23:25:40.851Z,4.90
2022-12-31T23:28:08.340Z,5.00
2022-12-31T23:30:39.371Z,5.40
2022-12-31T23:33:06.993Z,6.10
2022-12-31T23:35:33.924Z,6.20
2022-12-31T23:38:00.785Z,6.70
2022-12-31T23:40:34.437Z,6.50
2022-12-31T23:43:06.268Z,6.40
2022-12-31T23:48:00.652Z,6.20
2022-12-31T23:50:27.898Z,4.90
2022-12-31T23:52:54.763Z,5.10
2022-12-31T23:55:21.916Z,6.10
2022-12-31T23:57:48.816Z,6.20
